• Join FlightAware (Why Join?)
  • Login
  • US Flag 
12:43PM EST


 

Airport Tracker/Info


-or-


 

Live Flight TrackerFlight Track Log ✈ ASQ4516 ✈ 22-Jun-2013 ✈ KSYR - KORD

Flight Track Log - Related Links

Times and Time Zones

All times are in EDT time to prevent confusion due to time zone crossing. See the ASQ4516 flight status page for this flight to view local times or setup timezone preferences in your user account.

Time Position Orientation Groundspeed Altitude Reporting Facility
EDT Latitude Longitude Course Direction KTS MPH feet Rate Location/Type
12:29PM 43.1072 -76.2058 270° West 184 212 3,100  Level Boston Center
12:30PM 43.1339 -76.2844 295° West 260 299 5,600 2,520 Climbing Boston Center
12:31PM 43.2012 -76.5085 281° West  Level FlightAware Approximate
12:31PM 43.1758 -76.3808 301° West 271 312 8,600  Level Cleveland Center
12:32PM 43.2171 -76.6187 286° West  Level FlightAware Approximate
12:32PM 43.2044 -76.4786 292° West 271 312 10,500  Level Cleveland Center
12:33PM 43.2403 -76.7265 286° West  Level FlightAware Approximate
12:33PM 43.2253 -76.5969 284° West 292 336 12,400  Level Cleveland Center
12:34PM 43.2253 -76.7225 270° West 322 371 14,200 1,800 Climbing Cleveland Center
12:35PM 43.2211 -76.8481 267° West 327 376 16,000 1,680 Climbing Cleveland Center
12:36PM 43.2150 -76.9794 266° West 336 387 17,600 1,260 Climbing Cleveland Center
12:37PM 43.2122 -77.0992 268° West 347 399 18,600 1,200 Climbing Cleveland Center
12:38PM 43.2100 -77.2333 269° West 352 405 20,100 1,500 Climbing Cleveland Center
12:39PM 43.2075 -77.3672 269° West 352 405 21,600 1,320 Climbing Cleveland Center
12:40PM 43.2028 -77.5044 267° West 352 405 22,800 1,200 Climbing Cleveland Center
12:41PM 43.1986 -77.6611 268° West 371 427 24,000 1,080 Climbing Cleveland Center
12:42PM 43.1939 -77.8039 267° West 377 434 25,000 960 Climbing Cleveland Center
12:43PM 43.1889 -77.9522 267° West 382 440 26,000 960 Climbing Cleveland Center
12:44PM 43.1839 -78.1033 267° West 393 452 27,000 900 Climbing Cleveland Center
12:45PM 43.1786 -78.2544 267° West 398 458 27,900 900 Climbing Cleveland Center
12:46PM 43.1714 -78.4056 266° West 403 464 28,900 960 Climbing Cleveland Center
12:47PM 43.1678 -78.5594 268° West 403 464 29,900 960 Climbing Cleveland Center
12:48PM 43.1619 -78.7133 267° West 403 464 30,900 960 Climbing Cleveland Center
12:49PM 43.1539 -78.8672 266° West 403 464 31,900 960 Climbing Cleveland Center
12:50PM 43.1333 -78.9667 254° West 400 460 32,700 960 Climbing Toronto Center
12:51PM 43.1333 -79.1333 270° West 400 460 33,700 900 Climbing Toronto Center
12:52PM 43.1333 -79.2667 270° West 400 460 34,600 900 Climbing Toronto Center
12:53PM 43.1167 -79.4333 262° West 400 460 35,600 660 Climbing Toronto Center
12:54PM 43.1167 -79.5833 270° West 400 460 36,000 180 Climbing Toronto Center
12:55PM 43.1000 -79.7167 260° West 420 483 36,000  Level Toronto Center
12:56PM 43.1000 -79.9000 270° West 430 495 36,000  Level Toronto Center
12:57PM 43.0833 -80.0667 262° West 430 495 36,000  Level Toronto Center
12:58PM 43.0833 -80.2333 270° West 420 483 36,000  Level Toronto Center
12:59PM 43.0667 -80.3833 261° West 420 483 36,000  Level Toronto Center
01:00PM 43.0667 -80.5500 270° West 420 483 36,000  Level Toronto Center
01:01PM 43.0500 -80.7000 261° West 430 495 36,000  Level Toronto Center
01:02PM 43.0333 -80.8667 262° West 440 506 36,000  Level Toronto Center
01:03PM 43.0167 -81.0500 263° West 450 518 36,000  Level Toronto Center
01:04PM 43.0167 -81.2000 270° West 450 518 36,000  Level Toronto Center
01:05PM 43.0167 -81.3833 270° West 440 506 36,000  Level Toronto Center
01:06PM 43.0167 -81.5500 270° West 440 506 36,000  Level Toronto Center
01:07PM 43.0167 -81.7000 270° West 430 495 36,000  Level Toronto Center
01:08PM 43.0167 -81.8833 270° West 430 495 36,000  Level Toronto Center
01:09PM 43.0000 -82.0500 262° West 430 495 36,000  Level Toronto Center
01:10PM 43.0000 -82.2167 270° West 430 495 36,000  Level Toronto Center
01:11PM 43.0000 -82.3667 270° West 430 495 36,000  Level Toronto Center
01:12PM 43.0000 -82.5333 270° West 430 495 36,000  Level Toronto Center
01:13PM 42.9833 -82.7167 263° West 430 495 36,000  Level Toronto Center
01:13PM 42.9969 -82.8200 280° West 441 507 36,000  Level Cleveland Center
01:14PM 42.9936 -82.9844 268° West 441 507 36,000  Level Cleveland Center
01:15PM 42.9861 -83.1489 266° West 441 507 36,000  Level Cleveland Center
01:16PM 42.9822 -83.3133 268° West 441 507 36,000 -360 Level Cleveland Center
01:17PM 42.9756 -83.5061 267° West 446 513 35,300 -900 Descending Cleveland Center
01:18PM 42.9689 -83.6733 267° West 446 513 34,300 -960 Descending Cleveland Center
01:19PM 42.9561 -83.8400 264° West 446 513 33,400 -960 Descending Cleveland Center
01:20PM 42.9406 -84.0122 263° West 451 519 32,400 -720 Descending Cleveland Center
01:21PM 42.9253 -84.1786 263° West 451 519 32,000 -240 Descending Cleveland Center
01:22PM 42.9147 -84.2864 262° West 447 514 32,000  Level Chicago Center
01:23PM 42.8978 -84.4522 262° West 443 510 32,000  Level Chicago Center
01:24PM 42.8806 -84.6197 262° West 446 513 32,000  Level Chicago Center
01:25PM 42.8633 -84.7889 262° West 451 519 32,000  Level Chicago Center
01:26PM 42.8456 -84.9603 262° West 456 525 32,000  Level Chicago Center
01:27PM 42.8264 -85.1322 261° West 459 528 32,000 -420 Level Chicago Center
01:28PM 42.8081 -85.3042 262° West 458 527 31,200 -1,320 Descending Chicago Center
01:29PM 42.7844 -85.5064 261° West 453 521 29,300 -1,800 Descending Chicago Center
01:30PM 42.7544 -85.6750 256° West 455 524 27,500 -1,800 Descending Chicago Center
01:31PM 42.7233 -85.8453 256° West 460 529 25,700 -1,860 Descending Chicago Center
01:32PM 42.6939 -86.0083 256° West 445 512 23,800 -1,980 Descending Chicago Center
01:33PM 42.6664 -86.1594 256° West 416 479 21,700 -1,860 Descending Chicago Center
01:34PM 42.6397 -86.3064 256° West 401 461 20,000 -840 Descending Chicago Center
01:35PM 42.6119 -86.4492 255° West 394 453 20,000  Level Chicago Center
01:36PM 42.5833 -86.5992 256° West 409 471 20,000 -720 Level Chicago Center
01:37PM 42.5539 -86.7572 256° West 410 472 18,600 -1,500 Descending Chicago Center
01:38PM 42.5169 -86.8961 250° West 401 461 17,000 -1,800 Descending Chicago Center
01:39PM 42.4736 -87.0500 249° West 386 444 14,900 -1,320 Descending Chicago Center
01:40PM 42.4414 -87.1589 248° West 313 360 14,300 -1,080 Descending Chicago Center
01:42PM 42.4156 -87.2558 250° West 274 315 12,800 -1,500 Descending Chicago Center
01:43PM 42.3892 -87.3461 248° West 266 306 11,200 -1,380 Descending Chicago Center
01:44PM 42.3639 -87.4433 251° West 271 312 10,000 -600 Descending Chicago Center
01:45PM 42.3231 -87.5511 243° Southwest 276 318 10,000 -360 Level Chicago Center
01:46PM 42.2636 -87.6147 218° Southwest 267 307 9,300 -840 Descending Chicago Center
01:47PM 42.2017 -87.6786 217° Southwest 278 320 8,300 -660 Descending Chicago Center
01:48PM 42.1425 -87.7406 218° Southwest 271 312 8,000 -180 Descending Chicago Center
01:49PM 42.0942 -87.8175 230° Southwest 282 325 8,000  Level Chicago Center
01:50PM 42.0914 -87.9381 268° West 275 316 8,000  Level Chicago Center
01:51PM 42.1000 -88.0167 278° West 255 293 8,000 -60 Level Chicago TRACON
01:52PM 42.0833 -88.1167 257° West 211 243 7,900  Descending Chicago TRACON
01:53PM 42.0833 -88.1833 270° West 187 215 8,000 -360 Climbing Chicago TRACON
01:54PM 42.0833 -88.2500 270° West 193 222 7,300 -540 Descending Chicago TRACON
01:55PM 42.0833 -88.3167 270° West 180 207 7,000 -180 Descending Chicago TRACON
01:56PM 42.0833 -88.3833 270° West 195 224 7,000  Level Chicago TRACON
01:57PM 42.0833 -88.4667 270° West 209 241 7,000  Level Chicago TRACON
01:58PM 42.0333 -88.4667 180° South 206 237 7,000  Level Chicago TRACON
01:58PM 41.9833 -88.4333 154° Southeast 202 232 7,000  Level Chicago TRACON
01:59PM 41.9772 -88.4064 107° East 204 235 7,000 -420 Level Chicago Center
02:00PM 41.9653 -88.3317 102° East 208 239 6,400 -1,020 Descending Chicago Center
02:01PM 41.9669 -88.2372 89° East 210 242 5,000 -1,260 Descending Chicago Center
02:02PM 41.9675 -88.1608 89° East 207 238 3,900 -1,140 Descending Chicago Center